Anmoore, West Virginia
Current Conditions -  °F | °C
As of 7:53 PM on Thursday 27 Nov 2014 (Local Time) from KCKB Reporting Station
Light Snow Light Snow  
Wind Chill: 21°   Ceiling: 2000
Heat Index: 30°   Visibility: 7mi
Dew Point: 25°   Wind: 10mph
Humidity: 82%   Direction: 280°W
Pressure: 30.24"   Gusts: NA
Location:  39.26°N, 80.29°W
Report Text: KCKB 280053Z 28009KT 7SM -SN SCT015 BKN020 OVC060 M01/M04 A3024 RMK AO2 SNE32B52 SLP245 P0000 T10111039
Loading
Personal Weather Stations






























Interactive Weather Map New forecast layout! Learn more

10-Day Weather Forecast

Advertisements
Track Severe Weather on mobile